sensor_id;sensor_type;location;lat;lon;timestamp;temperature;humidity
54680;DHT22;40578;53.178;5.846;2023-04-24T00:01:55;10.80;99.90
54680;DHT22;40578;53.178;5.846;2023-04-24T00:04:21;10.80;99.90
54680;DHT22;40578;53.178;5.846;2023-04-24T00:06:47;10.80;99.90
54680;DHT22;40578;53.178;5.846;2023-04-24T00:09:19;10.80;99.90
54680;DHT22;40578;53.178;5.846;2023-04-24T00:11:44;10.80;99.90
54680;DHT22;40578;53.178;5.846;2023-04-24T00:14:10;10.70;99.90
54680;DHT22;40578;53.178;5.846;2023-04-24T00:16:36;10.70;99.90
54680;DHT22;40578;53.178;5.846;2023-04-24T00:19:01;10.70;99.90
54680;DHT22;40578;53.178;5.846;2023-04-24T00:21:27;10.70;99.90
54680;DHT22;40578;53.178;5.846;2023-04-24T00:23:53;10.70;99.90
54680;DHT22;40578;53.178;5.846;2023-04-24T00:26:18;10.70;99.90
54680;DHT22;40578;53.178;5.846;2023-04-24T00:28:44;10.70;99.90
54680;DHT22;40578;53.178;5.846;2023-04-24T00:31:10;10.70;99.90
54680;DHT22;40578;53.178;5.846;2023-04-24T00:33:35;10.70;99.90
54680;DHT22;40578;53.178;5.846;2023-04-24T00:36:01;10.70;99.90
54680;DHT22;40578;53.178;5.846;2023-04-24T00:38:27;10.70;99.90
54680;DHT22;40578;53.178;5.846;2023-04-24T00:40:52;10.80;99.90
54680;DHT22;40578;53.178;5.846;2023-04-24T00:43:19;10.70;99.90
54680;DHT22;40578;53.178;5.846;2023-04-24T00:45:45;10.70;99.90
54680;DHT22;40578;53.178;5.846;2023-04-24T00:48:11;10.80;99.90
54680;DHT22;40578;53.178;5.846;2023-04-24T00:50:38;10.80;99.90
54680;DHT22;40578;53.178;5.846;2023-04-24T00:53:04;10.90;99.90
54680;DHT22;40578;53.178;5.846;2023-04-24T00:55:30;11.80;99.90
54680;DHT22;40578;53.178;5.846;2023-04-24T00:57:56;10.90;99.90
54680;DHT22;40578;53.178;5.846;2023-04-24T01:00:22;10.90;99.90
54680;DHT22;40578;53.178;5.846;2023-04-24T01:02:48;10.90;99.90
54680;DHT22;40578;53.178;5.846;2023-04-24T01:05:15;10.80;99.90
54680;DHT22;40578;53.178;5.846;2023-04-24T01:07:44;10.80;99.90
54680;DHT22;40578;53.178;5.846;2023-04-24T01:10:11;10.90;99.90
54680;DHT22;40578;53.178;5.846;2023-04-24T01:12:38;11.60;99.90
54680;DHT22;40578;53.178;5.846;2023-04-24T01:15:04;10.90;99.90
54680;DHT22;40578;53.178;5.846;2023-04-24T01:17:32;10.90;99.90
54680;DHT22;40578;53.178;5.846;2023-04-24T01:19:58;10.80;99.90
54680;DHT22;40578;53.178;5.846;2023-04-24T01:22:25;10.90;99.90
54680;DHT22;40578;53.178;5.846;2023-04-24T01:24:51;10.80;99.90
54680;DHT22;40578;53.178;5.846;2023-04-24T01:27:17;10.80;99.90
54680;DHT22;40578;53.178;5.846;2023-04-24T01:29:43;10.90;99.90
54680;DHT22;40578;53.178;5.846;2023-04-24T01:32:09;10.80;99.90
54680;DHT22;40578;53.178;5.846;2023-04-24T01:34:35;10.80;99.90
54680;DHT22;40578;53.178;5.846;2023-04-24T01:37:01;10.80;99.90
54680;DHT22;40578;53.178;5.846;2023-04-24T01:39:27;10.80;99.90
54680;DHT22;40578;53.178;5.846;2023-04-24T01:41:54;10.80;99.90
54680;DHT22;40578;53.178;5.846;2023-04-24T01:44:20;11.10;99.90
54680;DHT22;40578;53.178;5.846;2023-04-24T01:46:46;10.80;99.90
54680;DHT22;40578;53.178;5.846;2023-04-24T01:49:11;10.70;99.90
54680;DHT22;40578;53.178;5.846;2023-04-24T01:51:37;11.20;99.90
54680;DHT22;40578;53.178;5.846;2023-04-24T01:54:03;10.70;99.90
54680;DHT22;40578;53.178;5.846;2023-04-24T01:56:29;10.70;99.90
54680;DHT22;40578;53.178;5.846;2023-04-24T01:58:55;10.70;99.90
54680;DHT22;40578;53.178;5.846;2023-04-24T02:01:23;10.70;99.90
54680;DHT22;40578;53.178;5.846;2023-04-24T02:03:48;10.70;99.90
54680;DHT22;40578;53.178;5.846;2023-04-24T02:06:14;10.70;99.90
54680;DHT22;40578;53.178;5.846;2023-04-24T02:08:40;10.70;99.90
54680;DHT22;40578;53.178;5.846;2023-04-24T02:11:05;10.70;99.90
54680;DHT22;40578;53.178;5.846;2023-04-24T02:13:31;10.70;99.90
54680;DHT22;40578;53.178;5.846;2023-04-24T02:15:58;10.70;99.90
54680;DHT22;40578;53.178;5.846;2023-04-24T02:18:23;10.70;99.90
54680;DHT22;40578;53.178;5.846;2023-04-24T02:20:49;10.70;99.90
54680;DHT22;40578;53.178;5.846;2023-04-24T02:23:15;10.70;99.90
54680;DHT22;40578;53.178;5.846;2023-04-24T02:25:40;11.20;99.90
54680;DHT22;40578;53.178;5.846;2023-04-24T02:28:06;10.70;99.90
54680;DHT22;40578;53.178;5.846;2023-04-24T02:30:32;10.60;99.90
54680;DHT22;40578;53.178;5.846;2023-04-24T02:32:57;10.60;99.90
54680;DHT22;40578;53.178;5.846;2023-04-24T02:35:23;10.70;99.90
54680;DHT22;40578;53.178;5.846;2023-04-24T02:37:48;10.70;99.90
54680;DHT22;40578;53.178;5.846;2023-04-24T02:40:14;10.60;99.90
54680;DHT22;40578;53.178;5.846;2023-04-24T02:42:40;10.60;99.90
54680;DHT22;40578;53.178;5.846;2023-04-24T02:45:06;10.50;99.90
54680;DHT22;40578;53.178;5.846;2023-04-24T02:47:32;10.50;99.90
54680;DHT22;40578;53.178;5.846;2023-04-24T02:49:57;10.50;99.90
54680;DHT22;40578;53.178;5.846;2023-04-24T02:52:23;10.40;99.90
54680;DHT22;40578;53.178;5.846;2023-04-24T02:54:49;10.70;99.90
54680;DHT22;40578;53.178;5.846;2023-04-24T02:57:14;10.30;99.90
54680;DHT22;40578;53.178;5.846;2023-04-24T02:59:40;10.30;99.90
54680;DHT22;40578;53.178;5.846;2023-04-24T03:02:06;10.20;99.90
54680;DHT22;40578;53.178;5.846;2023-04-24T03:04:31;10.20;99.90
54680;DHT22;40578;53.178;5.846;2023-04-24T03:06:57;10.20;99.90
54680;DHT22;40578;53.178;5.846;2023-04-24T03:09:23;10.20;99.90
54680;DHT22;40578;53.178;5.846;2023-04-24T03:11:49;10.20;99.90
54680;DHT22;40578;53.178;5.846;2023-04-24T03:14:15;10.20;99.90
54680;DHT22;40578;53.178;5.846;2023-04-24T03:16:41;10.20;99.90
54680;DHT22;40578;53.178;5.846;2023-04-24T03:19:06;10.20;99.90
54680;DHT22;40578;53.178;5.846;2023-04-24T03:21:32;10.10;99.90
54680;DHT22;40578;53.178;5.846;2023-04-24T03:23:58;10.10;99.90
54680;DHT22;40578;53.178;5.846;2023-04-24T03:26:24;10.20;99.90
54680;DHT22;40578;53.178;5.846;2023-04-24T03:28:50;10.10;99.90
54680;DHT22;40578;53.178;5.846;2023-04-24T03:31:15;10.10;99.90
54680;DHT22;40578;53.178;5.846;2023-04-24T03:33:42;10.10;99.90
54680;DHT22;40578;53.178;5.846;2023-04-24T03:36:07;10.10;99.90
54680;DHT22;40578;53.178;5.846;2023-04-24T03:38:33;10.00;99.90
54680;DHT22;40578;53.178;5.846;2023-04-24T03:40:59;10.00;99.90
54680;DHT22;40578;53.178;5.846;2023-04-24T03:43:24;10.00;99.90
54680;DHT22;40578;53.178;5.846;2023-04-24T03:45:50;10.00;99.90
54680;DHT22;40578;53.178;5.846;2023-04-24T03:48:16;10.00;99.90
54680;DHT22;40578;53.178;5.846;2023-04-24T03:50:41;10.00;99.90
54680;DHT22;40578;53.178;5.846;2023-04-24T03:53:07;9.90;99.90
54680;DHT22;40578;53.178;5.846;2023-04-24T03:55:33;9.90;99.90
54680;DHT22;40578;53.178;5.846;2023-04-24T03:57:59;9.90;99.90
54680;DHT22;40578;53.178;5.846;2023-04-24T04:00:24;10.00;99.90
54680;DHT22;40578;53.178;5.846;2023-04-24T04:02:51;9.90;99.90
54680;DHT22;40578;53.178;5.846;2023-04-24T04:05:16;9.90;99.90
54680;DHT22;40578;53.178;5.846;2023-04-24T04:07:42;9.80;99.90
54680;DHT22;40578;53.178;5.846;2023-04-24T04:10:08;9.90;99.90
54680;DHT22;40578;53.178;5.846;2023-04-24T04:12:33;9.80;99.90
54680;DHT22;40578;53.178;5.846;2023-04-24T04:14:59;9.80;99.90
54680;DHT22;40578;53.178;5.846;2023-04-24T04:17:25;9.80;99.90
54680;DHT22;40578;53.178;5.846;2023-04-24T04:19:51;9.70;99.90
54680;DHT22;40578;53.178;5.846;2023-04-24T04:22:16;9.70;99.90
54680;DHT22;40578;53.178;5.846;2023-04-24T04:24:42;9.80;99.90
54680;DHT22;40578;53.178;5.846;2023-04-24T04:27:08;9.70;99.90
54680;DHT22;40578;53.178;5.846;2023-04-24T04:29:34;9.70;99.90
54680;DHT22;40578;53.178;5.846;2023-04-24T04:32:01;9.70;99.90
54680;DHT22;40578;53.178;5.846;2023-04-24T04:34:27;9.60;99.90
54680;DHT22;40578;53.178;5.846;2023-04-24T04:36:53;9.60;99.90
54680;DHT22;40578;53.178;5.846;2023-04-24T04:39:19;9.60;99.90
54680;DHT22;40578;53.178;5.846;2023-04-24T04:41:45;9.60;99.90
54680;DHT22;40578;53.178;5.846;2023-04-24T04:44:14;9.60;99.90
54680;DHT22;40578;53.178;5.846;2023-04-24T04:46:40;9.60;99.90
54680;DHT22;40578;53.178;5.846;2023-04-24T04:49:07;9.60;99.90
54680;DHT22;40578;53.178;5.846;2023-04-24T04:51:34;9.50;99.90
54680;DHT22;40578;53.178;5.846;2023-04-24T04:53:59;9.80;99.90
54680;DHT22;40578;53.178;5.846;2023-04-24T04:56:26;9.60;99.90
54680;DHT22;40578;53.178;5.846;2023-04-24T04:58:51;9.60;99.90
54680;DHT22;40578;53.178;5.846;2023-04-24T05:01:20;9.70;99.90
54680;DHT22;40578;53.178;5.846;2023-04-24T05:03:48;9.60;99.90
54680;DHT22;40578;53.178;5.846;2023-04-24T05:06:13;9.60;99.90
54680;DHT22;40578;53.178;5.846;2023-04-24T05:08:40;9.60;99.90
54680;DHT22;40578;53.178;5.846;2023-04-24T05:11:06;9.60;99.90
54680;DHT22;40578;53.178;5.846;2023-04-24T05:13:31;9.60;99.90
54680;DHT22;40578;53.178;5.846;2023-04-24T05:15:57;9.60;99.90
54680;DHT22;40578;53.178;5.846;2023-04-24T05:18:23;9.50;99.90
54680;DHT22;40578;53.178;5.846;2023-04-24T05:20:49;9.60;99.90
54680;DHT22;40578;53.178;5.846;2023-04-24T05:23:14;9.50;99.90
54680;DHT22;40578;53.178;5.846;2023-04-24T05:25:40;10.50;99.90
54680;DHT22;40578;53.178;5.846;2023-04-24T05:28:06;9.50;99.90
54680;DHT22;40578;53.178;5.846;2023-04-24T05:30:32;9.50;99.90
54680;DHT22;40578;53.178;5.846;2023-04-24T05:32:58;9.50;99.90
54680;DHT22;40578;53.178;5.846;2023-04-24T05:35:23;9.50;99.90
54680;DHT22;40578;53.178;5.846;2023-04-24T05:37:49;9.50;99.90
54680;DHT22;40578;53.178;5.846;2023-04-24T05:40:15;9.40;99.90
54680;DHT22;40578;53.178;5.846;2023-04-24T05:42:41;9.50;99.90
54680;DHT22;40578;53.178;5.846;2023-04-24T05:45:07;9.40;99.90
54680;DHT22;40578;53.178;5.846;2023-04-24T05:47:32;9.40;99.90
54680;DHT22;40578;53.178;5.846;2023-04-24T05:49:58;9.40;99.90
54680;DHT22;40578;53.178;5.846;2023-04-24T05:52:24;9.40;99.90
54680;DHT22;40578;53.178;5.846;2023-04-24T05:54:50;9.40;99.90
54680;DHT22;40578;53.178;5.846;2023-04-24T05:57:15;9.40;99.90
54680;DHT22;40578;53.178;5.846;2023-04-24T05:59:41;9.30;99.90
54680;DHT22;40578;53.178;5.846;2023-04-24T06:02:07;9.40;99.90
54680;DHT22;40578;53.178;5.846;2023-04-24T06:04:33;9.40;99.90
54680;DHT22;40578;53.178;5.846;2023-04-24T06:06:59;9.40;99.90
54680;DHT22;40578;53.178;5.846;2023-04-24T06:09:25;9.40;99.90
54680;DHT22;40578;53.178;5.846;2023-04-24T06:11:51;9.90;99.90
54680;DHT22;40578;53.178;5.846;2023-04-24T06:14:20;8.80;99.90
54680;DHT22;40578;53.178;5.846;2023-04-24T06:16:46;9.40;99.90
54680;DHT22;40578;53.178;5.846;2023-04-24T06:19:12;9.60;99.90
54680;DHT22;40578;53.178;5.846;2023-04-24T06:21:38;9.40;99.90
54680;DHT22;40578;53.178;5.846;2023-04-24T06:24:03;9.30;99.90
54680;DHT22;40578;53.178;5.846;2023-04-24T06:26:30;9.40;99.90
54680;DHT22;40578;53.178;5.846;2023-04-24T06:28:56;9.20;99.90
54680;DHT22;40578;53.178;5.846;2023-04-24T06:31:25;9.20;99.90
54680;DHT22;40578;53.178;5.846;2023-04-24T06:33:51;9.20;99.90
54680;DHT22;40578;53.178;5.846;2023-04-24T06:36:17;9.10;99.90
54680;DHT22;40578;53.178;5.846;2023-04-24T06:38:42;9.10;99.90
54680;DHT22;40578;53.178;5.846;2023-04-24T06:41:09;9.10;99.90
54680;DHT22;40578;53.178;5.846;2023-04-24T06:43:34;9.10;99.90
54680;DHT22;40578;53.178;5.846;2023-04-24T06:46:00;9.10;99.90
54680;DHT22;40578;53.178;5.846;2023-04-24T06:48:26;9.10;99.90
54680;DHT22;40578;53.178;5.846;2023-04-24T06:50:52;9.10;99.90
54680;DHT22;40578;53.178;5.846;2023-04-24T06:53:18;9.20;99.90
54680;DHT22;40578;53.178;5.846;2023-04-24T06:55:44;9.00;99.90
54680;DHT22;40578;53.178;5.846;2023-04-24T06:58:11;8.90;99.90
54680;DHT22;40578;53.178;5.846;2023-04-24T07:00:37;8.90;99.90
54680;DHT22;40578;53.178;5.846;2023-04-24T07:03:03;8.90;99.90
54680;DHT22;40578;53.178;5.846;2023-04-24T07:05:31;8.80;99.90
54680;DHT22;40578;53.178;5.846;2023-04-24T07:07:56;8.80;99.90
54680;DHT22;40578;53.178;5.846;2023-04-24T07:10:24;8.90;99.90
54680;DHT22;40578;53.178;5.846;2023-04-24T07:12:50;8.80;99.90
54680;DHT22;40578;53.178;5.846;2023-04-24T07:15:15;8.80;99.90
54680;DHT22;40578;53.178;5.846;2023-04-24T07:17:42;8.90;99.90
54680;DHT22;40578;53.178;5.846;2023-04-24T07:20:11;10.10;99.90
54680;DHT22;40578;53.178;5.846;2023-04-24T07:22:39;8.80;99.90
54680;DHT22;40578;53.178;5.846;2023-04-24T07:25:06;9.60;99.90
54680;DHT22;40578;53.178;5.846;2023-04-24T07:27:32;8.70;99.90
54680;DHT22;40578;53.178;5.846;2023-04-24T07:29:58;8.70;99.90
54680;DHT22;40578;53.178;5.846;2023-04-24T07:32:24;8.80;99.90
54680;DHT22;40578;53.178;5.846;2023-04-24T07:34:50;8.80;99.90
54680;DHT22;40578;53.178;5.846;2023-04-24T07:37:16;8.80;99.90
54680;DHT22;40578;53.178;5.846;2023-04-24T07:39:42;8.70;99.90
54680;DHT22;40578;53.178;5.846;2023-04-24T07:42:07;8.70;99.90
54680;DHT22;40578;53.178;5.846;2023-04-24T07:44:33;8.70;99.90
54680;DHT22;40578;53.178;5.846;2023-04-24T07:46:59;8.60;99.90
54680;DHT22;40578;53.178;5.846;2023-04-24T07:49:25;7.30;99.90
54680;DHT22;40578;53.178;5.846;2023-04-24T07:51:51;8.70;99.90
54680;DHT22;40578;53.178;5.846;2023-04-24T07:54:16;8.70;99.90
54680;DHT22;40578;53.178;5.846;2023-04-24T07:56:43;8.70;99.90
54680;DHT22;40578;53.178;5.846;2023-04-24T07:59:09;8.80;99.90
54680;DHT22;40578;53.178;5.846;2023-04-24T08:01:36;8.80;99.90
54680;DHT22;40578;53.178;5.846;2023-04-24T08:04:02;8.80;99.90
54680;DHT22;40578;53.178;5.846;2023-04-24T08:06:27;9.40;99.90
54680;DHT22;40578;53.178;5.846;2023-04-24T08:08:56;8.80;99.90
54680;DHT22;40578;53.178;5.846;2023-04-24T08:11:21;8.90;99.90
54680;DHT22;40578;53.178;5.846;2023-04-24T08:13:47;8.90;99.90
54680;DHT22;40578;53.178;5.846;2023-04-24T08:16:13;9.00;99.90
54680;DHT22;40578;53.178;5.846;2023-04-24T08:18:38;9.60;99.90
54680;DHT22;40578;53.178;5.846;2023-04-24T08:21:04;9.10;99.90
54680;DHT22;40578;53.178;5.846;2023-04-24T08:23:30;9.10;99.90
54680;DHT22;40578;53.178;5.846;2023-04-24T08:25:56;9.30;99.90
54680;DHT22;40578;53.178;5.846;2023-04-24T08:28:22;9.30;99.90
54680;DHT22;40578;53.178;5.846;2023-04-24T08:30:48;9.20;99.90
54680;DHT22;40578;53.178;5.846;2023-04-24T08:33:14;9.60;99.90
54680;DHT22;40578;53.178;5.846;2023-04-24T08:35:40;9.30;99.90
54680;DHT22;40578;53.178;5.846;2023-04-24T08:38:06;9.20;99.90
54680;DHT22;40578;53.178;5.846;2023-04-24T08:40:33;9.20;99.90
54680;DHT22;40578;53.178;5.846;2023-04-24T08:43:00;9.20;99.90
54680;DHT22;40578;53.178;5.846;2023-04-24T08:45:26;9.30;99.90
54680;DHT22;40578;53.178;5.846;2023-04-24T08:47:54;9.40;99.90
54680;DHT22;40578;53.178;5.846;2023-04-24T08:50:21;9.50;99.90
54680;DHT22;40578;53.178;5.846;2023-04-24T08:52:49;9.50;99.90
54680;DHT22;40578;53.178;5.846;2023-04-24T08:55:16;9.60;99.90
54680;DHT22;40578;53.178;5.846;2023-04-24T08:57:45;9.60;99.90
54680;DHT22;40578;53.178;5.846;2023-04-24T09:00:11;9.70;99.90
54680;DHT22;40578;53.178;5.846;2023-04-24T09:02:41;9.80;99.90
54680;DHT22;40578;53.178;5.846;2023-04-24T09:05:08;9.80;99.90
54680;DHT22;40578;53.178;5.846;2023-04-24T09:07:35;9.90;99.90
54680;DHT22;40578;53.178;5.846;2023-04-24T09:10:04;10.00;99.90
54680;DHT22;40578;53.178;5.846;2023-04-24T09:12:30;10.00;99.90
54680;DHT22;40578;53.178;5.846;2023-04-24T09:14:57;10.10;99.90
54680;DHT22;40578;53.178;5.846;2023-04-24T09:17:24;10.10;99.90
54680;DHT22;40578;53.178;5.846;2023-04-24T09:19:52;10.30;99.90
54680;DHT22;40578;53.178;5.846;2023-04-24T09:22:18;10.20;99.90
54680;DHT22;40578;53.178;5.846;2023-04-24T09:24:45;10.00;99.90
54680;DHT22;40578;53.178;5.846;2023-04-24T09:27:11;10.10;99.90
54680;DHT22;40578;53.178;5.846;2023-04-24T09:29:38;10.00;99.90
54680;DHT22;40578;53.178;5.846;2023-04-24T09:32:20;10.00;99.90
54680;DHT22;40578;53.178;5.846;2023-04-24T09:35:12;9.90;99.90
54680;DHT22;40578;53.178;5.846;2023-04-24T09:37:41;9.90;99.90
54680;DHT22;40578;53.178;5.846;2023-04-24T09:40:21;9.90;99.90
54680;DHT22;40578;53.178;5.846;2023-04-24T09:42:55;9.90;99.90
54680;DHT22;40578;53.178;5.846;2023-04-24T09:45:22;10.30;99.90
54680;DHT22;40578;53.178;5.846;2023-04-24T09:47:52;10.00;99.90
54680;DHT22;40578;53.178;5.846;2023-04-24T09:50:21;10.00;99.90
54680;DHT22;40578;53.178;5.846;2023-04-24T09:52:59;10.10;99.90
54680;DHT22;40578;53.178;5.846;2023-04-24T09:55:26;10.10;99.90
54680;DHT22;40578;53.178;5.846;2023-04-24T10:00:30;10.00;99.90
54680;DHT22;40578;53.178;5.846;2023-04-24T10:02:58;9.90;99.90
54680;DHT22;40578;53.178;5.846;2023-04-24T10:05:34;9.90;99.90
54680;DHT22;40578;53.178;5.846;2023-04-24T10:08:09;9.80;99.90
54680;DHT22;40578;53.178;5.846;2023-04-24T10:10:39;9.80;99.90
54680;DHT22;40578;53.178;5.846;2023-04-24T10:13:07;9.80;99.90
54680;DHT22;40578;53.178;5.846;2023-04-24T10:15:34;9.80;99.90
54680;DHT22;40578;53.178;5.846;2023-04-24T10:18:01;9.90;99.90
54680;DHT22;40578;53.178;5.846;2023-04-24T10:20:28;9.90;99.90
54680;DHT22;40578;53.178;5.846;2023-04-24T10:22:58;10.00;99.90
54680;DHT22;40578;53.178;5.846;2023-04-24T10:25:28;10.10;99.90
54680;DHT22;40578;53.178;5.846;2023-04-24T10:27:54;10.20;99.90
54680;DHT22;40578;53.178;5.846;2023-04-24T10:30:26;10.20;99.90
54680;DHT22;40578;53.178;5.846;2023-04-24T10:32:52;10.30;99.90
54680;DHT22;40578;53.178;5.846;2023-04-24T10:35:18;10.30;99.90
54680;DHT22;40578;53.178;5.846;2023-04-24T10:38:03;10.80;99.90
54680;DHT22;40578;53.178;5.846;2023-04-24T10:40:32;10.40;99.90
54680;DHT22;40578;53.178;5.846;2023-04-24T10:42:59;10.50;99.90
54680;DHT22;40578;53.178;5.846;2023-04-24T10:45:25;10.40;99.90
54680;DHT22;40578;53.178;5.846;2023-04-24T10:48:05;10.40;99.90
54680;DHT22;40578;53.178;5.846;2023-04-24T10:50:50;10.50;99.90
54680;DHT22;40578;53.178;5.846;2023-04-24T10:53:20;10.40;99.90
54680;DHT22;40578;53.178;5.846;2023-04-24T10:55:50;10.30;99.90
54680;DHT22;40578;53.178;5.846;2023-04-24T10:58:24;10.20;99.90
54680;DHT22;40578;53.178;5.846;2023-04-24T11:00:59;10.00;99.90
54680;DHT22;40578;53.178;5.846;2023-04-24T11:03:27;9.90;99.90
54680;DHT22;40578;53.178;5.846;2023-04-24T11:06:02;9.80;99.90
54680;DHT22;40578;53.178;5.846;2023-04-24T11:08:38;9.70;99.90
54680;DHT22;40578;53.178;5.846;2023-04-24T11:11:12;9.70;99.90
54680;DHT22;40578;53.178;5.846;2023-04-24T11:16:42;9.50;99.90
54680;DHT22;40578;53.178;5.846;2023-04-24T11:19:18;9.40;99.90
54680;DHT22;40578;53.178;5.846;2023-04-24T11:22:13;9.40;99.90
54680;DHT22;40578;53.178;5.846;2023-04-24T11:27:15;9.10;99.90
54680;DHT22;40578;53.178;5.846;2023-04-24T11:35:13;9.50;99.90
54680;DHT22;40578;53.178;5.846;2023-04-24T11:37:41;9.70;99.90
54680;DHT22;40578;53.178;5.846;2023-04-24T11:40:10;9.70;99.90
54680;DHT22;40578;53.178;5.846;2023-04-24T11:42:40;9.60;99.90
54680;DHT22;40578;53.178;5.846;2023-04-24T11:45:14;9.60;99.90
54680;DHT22;40578;53.178;5.846;2023-04-24T11:47:41;9.50;99.90
54680;DHT22;40578;53.178;5.846;2023-04-24T11:50:09;9.60;99.90
54680;DHT22;40578;53.178;5.846;2023-04-24T11:52:40;9.80;99.90
54680;DHT22;40578;53.178;5.846;2023-04-24T11:55:08;9.80;99.90
54680;DHT22;40578;53.178;5.846;2023-04-24T11:57:34;9.90;99.90
54680;DHT22;40578;53.178;5.846;2023-04-24T12:00:03;10.10;99.90
54680;DHT22;40578;53.178;5.846;2023-04-24T12:02:30;10.20;99.90
54680;DHT22;40578;53.178;5.846;2023-04-24T12:04:55;10.30;99.90
54680;DHT22;40578;53.178;5.846;2023-04-24T12:07:22;10.50;99.90
54680;DHT22;40578;53.178;5.846;2023-04-24T12:09:58;10.50;99.90
54680;DHT22;40578;53.178;5.846;2023-04-24T12:12:28;10.50;99.90
54680;DHT22;40578;53.178;5.846;2023-04-24T12:14:57;10.50;99.90
54680;DHT22;40578;53.178;5.846;2023-04-24T12:17:31;10.60;99.90
54680;DHT22;40578;53.178;5.846;2023-04-24T12:19:59;10.60;99.90
54680;DHT22;40578;53.178;5.846;2023-04-24T12:22:25;10.60;99.90
54680;DHT22;40578;53.178;5.846;2023-04-24T12:25:04;10.50;99.90
54680;DHT22;40578;53.178;5.846;2023-04-24T12:27:34;10.50;99.90
54680;DHT22;40578;53.178;5.846;2023-04-24T12:30:02;10.50;99.90
54680;DHT22;40578;53.178;5.846;2023-04-24T12:32:28;10.50;99.90
54680;DHT22;40578;53.178;5.846;2023-04-24T12:34:55;10.50;99.90
54680;DHT22;40578;53.178;5.846;2023-04-24T12:37:24;10.60;99.90
54680;DHT22;40578;53.178;5.846;2023-04-24T12:40:03;10.50;99.90
54680;DHT22;40578;53.178;5.846;2023-04-24T12:42:31;10.40;99.90
54680;DHT22;40578;53.178;5.846;2023-04-24T12:44:58;10.40;99.90
54680;DHT22;40578;53.178;5.846;2023-04-24T12:47:25;10.40;99.90
54680;DHT22;40578;53.178;5.846;2023-04-24T12:49:50;10.50;99.90
54680;DHT22;40578;53.178;5.846;2023-04-24T12:52:27;10.50;99.90
54680;DHT22;40578;53.178;5.846;2023-04-24T12:54:54;10.50;99.90
54680;DHT22;40578;53.178;5.846;2023-04-24T12:57:21;10.50;99.90
54680;DHT22;40578;53.178;5.846;2023-04-24T12:59:47;10.40;99.90
54680;DHT22;40578;53.178;5.846;2023-04-24T13:02:12;10.50;99.90
54680;DHT22;40578;53.178;5.846;2023-04-24T13:04:38;10.50;99.90
54680;DHT22;40578;53.178;5.846;2023-04-24T13:07:05;10.30;99.90
54680;DHT22;40578;53.178;5.846;2023-04-24T13:09:31;10.20;99.90
54680;DHT22;40578;53.178;5.846;2023-04-24T13:11:56;10.20;99.90
54680;DHT22;40578;53.178;5.846;2023-04-24T13:14:23;10.10;99.90
54680;DHT22;40578;53.178;5.846;2023-04-24T13:16:49;10.00;99.90
54680;DHT22;40578;53.178;5.846;2023-04-24T13:19:14;9.90;99.90
54680;DHT22;40578;53.178;5.846;2023-04-24T13:21:40;9.90;99.90
54680;DHT22;40578;53.178;5.846;2023-04-24T13:24:06;9.80;99.90
54680;DHT22;40578;53.178;5.846;2023-04-24T13:26:33;9.70;99.90
54680;DHT22;40578;53.178;5.846;2023-04-24T13:28:58;11.30;99.90
54680;DHT22;40578;53.178;5.846;2023-04-24T13:31:24;9.80;99.90
54680;DHT22;40578;53.178;5.846;2023-04-24T13:33:50;9.80;99.90
54680;DHT22;40578;53.178;5.846;2023-04-24T13:36:16;9.80;99.90
54680;DHT22;40578;53.178;5.846;2023-04-24T13:38:43;9.90;99.90
54680;DHT22;40578;53.178;5.846;2023-04-24T13:41:10;9.80;99.90
54680;DHT22;40578;53.178;5.846;2023-04-24T13:43:35;9.90;99.90
54680;DHT22;40578;53.178;5.846;2023-04-24T13:46:01;9.90;99.90
54680;DHT22;40578;53.178;5.846;2023-04-24T13:48:28;10.30;99.90
54680;DHT22;40578;53.178;5.846;2023-04-24T13:50:54;10.10;99.90
54680;DHT22;40578;53.178;5.846;2023-04-24T13:53:19;10.10;99.90
54680;DHT22;40578;53.178;5.846;2023-04-24T13:55:45;10.00;99.90
54680;DHT22;40578;53.178;5.846;2023-04-24T13:58:11;10.50;99.90
54680;DHT22;40578;53.178;5.846;2023-04-24T14:00:36;9.70;99.90
54680;DHT22;40578;53.178;5.846;2023-04-24T14:03:02;9.60;99.90
54680;DHT22;40578;53.178;5.846;2023-04-24T14:05:27;9.50;99.90
54680;DHT22;40578;53.178;5.846;2023-04-24T14:07:53;9.40;99.90
54680;DHT22;40578;53.178;5.846;2023-04-24T14:10:19;9.50;99.90
54680;DHT22;40578;53.178;5.846;2023-04-24T14:12:45;9.50;99.90
54680;DHT22;40578;53.178;5.846;2023-04-24T14:15:10;9.40;99.90
54680;DHT22;40578;53.178;5.846;2023-04-24T14:17:36;9.50;99.90
54680;DHT22;40578;53.178;5.846;2023-04-24T14:20:02;9.50;99.90
54680;DHT22;40578;53.178;5.846;2023-04-24T14:22:29;9.50;99.90
54680;DHT22;40578;53.178;5.846;2023-04-24T14:24:54;9.50;99.90
54680;DHT22;40578;53.178;5.846;2023-04-24T14:27:20;9.40;99.90
54680;DHT22;40578;53.178;5.846;2023-04-24T14:29:45;9.40;99.90
54680;DHT22;40578;53.178;5.846;2023-04-24T14:32:11;9.40;99.90
54680;DHT22;40578;53.178;5.846;2023-04-24T14:34:37;9.30;99.90
54680;DHT22;40578;53.178;5.846;2023-04-24T14:37:02;9.40;99.90
54680;DHT22;40578;53.178;5.846;2023-04-24T14:39:28;9.70;99.90
54680;DHT22;40578;53.178;5.846;2023-04-24T14:41:54;9.30;99.90
54680;DHT22;40578;53.178;5.846;2023-04-24T14:44:20;9.20;99.90
54680;DHT22;40578;53.178;5.846;2023-04-24T14:46:46;9.20;99.90
54680;DHT22;40578;53.178;5.846;2023-04-24T14:49:11;9.30;99.90
54680;DHT22;40578;53.178;5.846;2023-04-24T14:51:37;9.30;99.90
54680;DHT22;40578;53.178;5.846;2023-04-24T14:54:03;9.30;99.90
54680;DHT22;40578;53.178;5.846;2023-04-24T14:56:29;9.30;99.90
54680;DHT22;40578;53.178;5.846;2023-04-24T14:58:55;10.50;99.90
54680;DHT22;40578;53.178;5.846;2023-04-24T15:01:21;9.20;99.90
54680;DHT22;40578;53.178;5.846;2023-04-24T15:03:47;9.40;99.90
54680;DHT22;40578;53.178;5.846;2023-04-24T15:06:13;9.20;99.90
54680;DHT22;40578;53.178;5.846;2023-04-24T15:08:39;9.30;99.90
54680;DHT22;40578;53.178;5.846;2023-04-24T15:11:05;9.40;99.90
54680;DHT22;40578;53.178;5.846;2023-04-24T15:13:31;9.30;99.90
54680;DHT22;40578;53.178;5.846;2023-04-24T15:15:57;9.30;99.90
54680;DHT22;40578;53.178;5.846;2023-04-24T15:18:22;9.20;99.90
54680;DHT22;40578;53.178;5.846;2023-04-24T15:20:48;9.10;99.90
54680;DHT22;40578;53.178;5.846;2023-04-24T15:23:14;9.10;99.90
54680;DHT22;40578;53.178;5.846;2023-04-24T15:25:39;9.10;99.90
54680;DHT22;40578;53.178;5.846;2023-04-24T15:28:05;9.20;99.90
54680;DHT22;40578;53.178;5.846;2023-04-24T15:30:31;9.30;99.90
54680;DHT22;40578;53.178;5.846;2023-04-24T15:32:57;9.20;99.90
54680;DHT22;40578;53.178;5.846;2023-04-24T15:35:23;9.10;99.90
54680;DHT22;40578;53.178;5.846;2023-04-24T15:37:48;9.00;99.90
54680;DHT22;40578;53.178;5.846;2023-04-24T15:40:14;9.00;99.90
54680;DHT22;40578;53.178;5.846;2023-04-24T15:42:42;9.00;99.90
54680;DHT22;40578;53.178;5.846;2023-04-24T15:45:08;9.10;99.90
54680;DHT22;40578;53.178;5.846;2023-04-24T15:47:34;8.90;99.90
54680;DHT22;40578;53.178;5.846;2023-04-24T15:50:00;8.90;99.90
54680;DHT22;40578;53.178;5.846;2023-04-24T15:52:26;9.00;99.90